createdAt,value
2019-03-10T00:00:04.876Z,13.30
2019-03-10T00:00:36.091Z,13.26
2019-03-10T00:01:07.357Z,13.23
2019-03-10T00:01:38.562Z,13.19
2019-03-10T00:02:10.567Z,13.18
2019-03-10T00:02:41.856Z,13.15
2019-03-10T00:03:13.098Z,13.13
2019-03-10T00:03:44.306Z,13.12
2019-03-10T00:04:15.517Z,13.09
2019-03-10T00:04:46.728Z,13.05
2019-03-10T00:05:17.937Z,13.04
2019-03-10T00:05:49.156Z,13.05
2019-03-10T00:06:20.422Z,13.04
2019-03-10T00:06:51.627Z,13.01
2019-03-10T00:07:22.841Z,12.97
2019-03-10T00:07:54.137Z,12.94
2019-03-10T00:08:25.323Z,12.92
2019-03-10T00:08:56.523Z,12.90
2019-03-10T00:09:27.739Z,12.87
2019-03-10T00:09:58.963Z,12.87
2019-03-10T00:10:30.263Z,12.85
2019-03-10T00:11:01.464Z,12.84
2019-03-10T00:11:32.755Z,12.85
2019-03-10T00:12:03.962Z,12.85
2019-03-10T00:12:35.176Z,12.84
2019-03-10T00:13:06.408Z,12.83
2019-03-10T00:13:37.612Z,12.80
2019-03-10T00:14:08.820Z,12.76
2019-03-10T00:14:40.042Z,12.77
2019-03-10T00:15:11.566Z,12.75
2019-03-10T00:15:42.792Z,12.74
2019-03-10T00:16:13.998Z,12.73
2019-03-10T00:16:45.252Z,12.72
2019-03-10T00:17:16.454Z,12.72
2019-03-10T00:17:47.712Z,12.71
2019-03-10T00:18:18.932Z,12.72
2019-03-10T00:18:50.125Z,12.72
2019-03-10T00:19:21.499Z,12.72
2019-03-10T00:19:52.703Z,12.71
2019-03-10T00:20:23.902Z,12.72
2019-03-10T00:20:55.164Z,12.72
2019-03-10T00:21:26.396Z,12.71
2019-03-10T00:21:57.593Z,12.73
2019-03-10T00:22:28.809Z,12.73
2019-03-10T00:23:00.033Z,12.74
2019-03-10T00:23:31.240Z,12.74
2019-03-10T00:24:02.446Z,12.75
2019-03-10T00:24:33.648Z,12.75
2019-03-10T00:25:04.853Z,12.76
2019-03-10T00:25:36.068Z,12.76
2019-03-10T00:26:07.311Z,12.76
2019-03-10T00:26:38.566Z,12.78
2019-03-10T00:27:09.793Z,12.80
2019-03-10T00:27:41.010Z,12.79
2019-03-10T00:28:12.205Z,12.78
2019-03-10T00:28:43.402Z,12.77
2019-03-10T00:29:14.613Z,12.76
2019-03-10T00:29:45.818Z,12.75
2019-03-10T00:30:17.032Z,12.77
2019-03-10T00:30:48.230Z,12.77
2019-03-10T00:31:19.442Z,12.73
2019-03-10T00:31:50.688Z,12.72
2019-03-10T00:32:21.893Z,12.72
2019-03-10T00:32:53.103Z,12.72
2019-03-10T00:33:24.324Z,12.74
2019-03-10T00:33:55.555Z,12.75
2019-03-10T00:34:26.776Z,12.78
2019-03-10T00:34:57.985Z,12.81
2019-03-10T00:35:29.210Z,12.82
2019-03-10T00:36:00.392Z,12.84
2019-03-10T00:36:31.585Z,12.86
2019-03-10T00:37:02.826Z,12.89
2019-03-10T00:37:34.037Z,12.91
2019-03-10T00:38:05.249Z,12.92
2019-03-10T00:38:36.458Z,12.93
2019-03-10T00:39:07.664Z,12.92
2019-03-10T00:39:38.873Z,12.91
2019-03-10T00:40:10.082Z,12.92
2019-03-10T00:40:41.312Z,12.91
2019-03-10T00:41:12.553Z,12.90
2019-03-10T00:41:43.752Z,12.89
2019-03-10T00:42:14.954Z,12.88
2019-03-10T00:42:46.153Z,12.84
2019-03-10T00:43:17.415Z,12.84
2019-03-10T00:43:49.598Z,12.82
2019-03-10T00:44:20.803Z,12.80
2019-03-10T00:44:52.030Z,12.80
2019-03-10T00:45:23.221Z,12.75
2019-03-10T00:45:54.417Z,12.73
2019-03-10T00:46:25.646Z,12.72
2019-03-10T00:46:56.938Z,12.71
2019-03-10T00:47:28.099Z,12.70
2019-03-10T00:47:59.295Z,12.70
2019-03-10T00:48:30.511Z,12.68
2019-03-10T00:49:01.717Z,12.66
2019-03-10T00:49:32.917Z,12.68
2019-03-10T00:50:04.137Z,12.67
2019-03-10T00:50:35.523Z,12.64
2019-03-10T00:51:06.741Z,12.63
2019-03-10T00:51:37.954Z,12.61
2019-03-10T00:52:09.193Z,12.62
2019-03-10T00:52:40.419Z,12.62
2019-03-10T00:53:11.679Z,12.61
2019-03-10T00:53:42.881Z,12.60
2019-03-10T00:54:14.077Z,12.58
2019-03-10T00:54:45.328Z,12.59
2019-03-10T00:55:16.536Z,12.57
2019-03-10T00:55:47.746Z,12.55
2019-03-10T00:56:18.941Z,12.55
2019-03-10T00:56:50.155Z,12.55
2019-03-10T00:57:21.361Z,12.54
2019-03-10T00:57:52.611Z,12.53
2019-03-10T00:58:23.822Z,12.52
2019-03-10T00:58:55.020Z,12.55
2019-03-10T00:59:26.224Z,12.53
2019-03-10T00:59:57.420Z,12.55
2019-03-10T01:00:28.628Z,12.53
2019-03-10T01:00:59.822Z,12.51
2019-03-10T01:01:31.027Z,12.50
2019-03-10T01:02:02.227Z,12.51
2019-03-10T01:02:33.478Z,12.51
2019-03-10T01:03:04.700Z,12.51
2019-03-10T01:03:35.927Z,12.50
2019-03-10T01:04:07.134Z,12.51
2019-03-10T01:04:38.385Z,12.50
2019-03-10T01:05:09.591Z,12.48
2019-03-10T01:05:40.782Z,12.48
2019-03-10T01:06:11.988Z,12.46
2019-03-10T01:06:43.226Z,12.45
2019-03-10T01:07:14.437Z,12.44
2019-03-10T01:07:45.630Z,12.45
2019-03-10T01:08:16.828Z,12.43
2019-03-10T01:08:48.039Z,12.41
2019-03-10T01:09:19.246Z,12.41
2019-03-10T01:09:50.482Z,12.41
2019-03-10T01:10:21.788Z,12.40
2019-03-10T01:10:53.039Z,12.39
2019-03-10T01:11:24.239Z,12.37
2019-03-10T01:11:55.449Z,12.37
2019-03-10T01:12:26.654Z,12.36
2019-03-10T01:12:57.864Z,12.37
2019-03-10T01:13:29.148Z,12.37
2019-03-10T01:14:00.338Z,12.37
2019-03-10T01:14:31.535Z,12.36
2019-03-10T01:15:02.836Z,12.34
2019-03-10T01:15:34.025Z,12.34
2019-03-10T01:16:05.282Z,12.33
2019-03-10T01:16:36.497Z,12.33
2019-03-10T01:17:07.695Z,12.34
2019-03-10T01:17:38.903Z,12.33
2019-03-10T01:18:10.104Z,12.35
2019-03-10T01:18:41.321Z,12.35
2019-03-10T01:19:12.544Z,12.36
2019-03-10T01:19:43.728Z,12.36
2019-03-10T01:20:14.982Z,12.35
2019-03-10T01:20:46.181Z,12.36
2019-03-10T01:21:17.413Z,12.38
2019-03-10T01:21:48.615Z,12.36
2019-03-10T01:22:19.809Z,12.37
2019-03-10T01:22:51.002Z,12.37
2019-03-10T01:23:22.201Z,12.35
2019-03-10T01:23:53.413Z,12.35
2019-03-10T01:24:24.625Z,12.34
2019-03-10T01:24:55.861Z,12.33
2019-03-10T01:25:27.099Z,12.32
2019-03-10T01:25:58.296Z,12.30
2019-03-10T01:26:29.498Z,12.31
2019-03-10T01:27:00.709Z,12.33
2019-03-10T01:27:31.906Z,12.34
2019-03-10T01:28:03.106Z,12.37
2019-03-10T01:28:34.326Z,12.38
2019-03-10T01:29:05.533Z,12.40
2019-03-10T01:29:36.733Z,12.43
2019-03-10T01:30:07.975Z,12.44
2019-03-10T01:30:39.224Z,12.44
2019-03-10T01:31:10.446Z,12.43
2019-03-10T01:31:41.639Z,12.40
2019-03-10T01:32:12.838Z,12.37
2019-03-10T01:32:44.086Z,12.36
2019-03-10T01:33:15.288Z,12.36
2019-03-10T01:33:46.534Z,12.35
2019-03-10T01:34:17.752Z,12.37
2019-03-10T01:34:48.954Z,12.34
2019-03-10T01:35:20.182Z,12.34
2019-03-10T01:35:51.382Z,12.32
2019-03-10T01:36:22.647Z,12.32
2019-03-10T01:36:53.863Z,12.29
2019-03-10T01:37:25.067Z,12.27
2019-03-10T01:37:56.278Z,12.26
2019-03-10T01:38:27.492Z,12.26
2019-03-10T01:38:58.702Z,12.24
2019-03-10T01:39:29.952Z,12.26
2019-03-10T01:40:01.152Z,12.26
2019-03-10T01:40:32.369Z,12.25
2019-03-10T01:41:03.569Z,12.23
2019-03-10T01:41:34.771Z,12.23
2019-03-10T01:42:05.974Z,12.22
2019-03-10T01:42:37.182Z,12.23
2019-03-10T01:43:08.446Z,12.21
2019-03-10T01:43:39.637Z,12.21
2019-03-10T01:44:10.845Z,12.19
2019-03-10T01:44:42.040Z,12.19
2019-03-10T01:45:13.244Z,12.19
2019-03-10T01:45:44.443Z,12.18
2019-03-10T01:46:15.650Z,12.16
2019-03-10T01:46:46.856Z,12.14
2019-03-10T01:47:18.074Z,12.15
2019-03-10T01:47:49.313Z,12.12
2019-03-10T01:48:20.510Z,12.10
2019-03-10T01:48:51.706Z,12.08
2019-03-10T01:49:22.922Z,12.06
2019-03-10T01:49:54.152Z,12.05
2019-03-10T01:50:25.372Z,12.02
2019-03-10T01:50:56.570Z,12.03
2019-03-10T01:51:27.782Z,12.01
2019-03-10T01:51:58.995Z,11.99
2019-03-10T01:52:30.208Z,11.99
2019-03-10T01:53:01.414Z,12.00
2019-03-10T01:53:32.630Z,11.98
2019-03-10T01:54:03.932Z,12.01
2019-03-10T01:54:35.165Z,12.00
2019-03-10T01:55:06.365Z,12.03
2019-03-10T01:55:37.577Z,12.04
2019-03-10T01:56:08.786Z,12.06
2019-03-10T01:56:40.005Z,12.06
2019-03-10T01:57:11.221Z,12.07
2019-03-10T01:57:42.490Z,12.06
2019-03-10T01:58:13.686Z,12.07
2019-03-10T01:58:44.973Z,12.07
2019-03-10T01:59:16.223Z,12.09
2019-03-10T01:59:47.469Z,12.12
2019-03-10T02:00:18.723Z,12.12
2019-03-10T02:00:49.914Z,12.14
2019-03-10T02:01:21.108Z,12.16
2019-03-10T02:01:52.324Z,12.17
2019-03-10T02:02:25.657Z,12.17
2019-03-10T02:02:56.490Z,12.14
2019-03-10T02:03:27.715Z,12.12
2019-03-10T02:03:58.912Z,12.10
2019-03-10T02:04:30.118Z,12.10
2019-03-10T02:05:01.335Z,12.09
2019-03-10T02:05:32.547Z,12.10
2019-03-10T02:06:03.757Z,12.09
2019-03-10T02:06:34.955Z,12.09
2019-03-10T02:07:06.161Z,12.09
2019-03-10T02:07:37.404Z,12.10
2019-03-10T02:08:08.610Z,12.08
2019-03-10T02:08:39.855Z,12.05
2019-03-10T02:09:11.057Z,12.05
2019-03-10T02:09:42.261Z,12.04
2019-03-10T02:10:13.479Z,12.03
2019-03-10T02:10:44.687Z,12.03
2019-03-10T02:11:15.888Z,12.00
2019-03-10T02:11:47.086Z,11.99
2019-03-10T02:12:18.297Z,11.97
2019-03-10T02:12:49.546Z,11.96
2019-03-10T02:13:20.746Z,11.93
2019-03-10T02:13:52.035Z,11.89
2019-03-10T02:14:23.243Z,11.87
2019-03-10T02:14:54.456Z,11.85
2019-03-10T02:15:25.653Z,11.86
2019-03-10T02:15:56.852Z,11.83
2019-03-10T02:16:28.095Z,11.82
2019-03-10T02:16:59.345Z,11.81
2019-03-10T02:17:30.558Z,11.82
2019-03-10T02:18:01.766Z,11.80
2019-03-10T02:18:32.966Z,11.76
2019-03-10T02:19:04.186Z,11.76
2019-03-10T02:19:35.427Z,11.75
2019-03-10T02:20:06.623Z,11.75
2019-03-10T02:20:37.843Z,11.74
2019-03-10T02:21:09.052Z,11.73
2019-03-10T02:21:40.311Z,11.70
2019-03-10T02:22:11.524Z,11.70
2019-03-10T02:22:42.733Z,11.66
2019-03-10T02:23:13.927Z,11.63
2019-03-10T02:23:45.169Z,11.59
2019-03-10T02:24:23.686Z,11.42
2019-03-10T02:24:49.294Z,11.56
2019-03-10T02:25:20.494Z,11.55
2019-03-10T02:25:51.695Z,11.54
2019-03-10T02:26:22.894Z,11.54
2019-03-10T02:26:54.103Z,11.54
2019-03-10T02:27:25.300Z,11.51
2019-03-10T02:27:56.511Z,11.50
2019-03-10T02:28:27.714Z,11.47
2019-03-10T02:28:58.965Z,11.44
2019-03-10T02:29:30.534Z,11.41
2019-03-10T02:30:01.767Z,11.35
2019-03-10T02:30:33.010Z,11.33
2019-03-10T02:31:04.294Z,11.29
2019-03-10T02:31:35.498Z,11.26
2019-03-10T02:32:06.708Z,11.24
2019-03-10T02:32:37.946Z,11.21
2019-03-10T02:33:09.176Z,11.20
2019-03-10T02:33:40.458Z,11.16
2019-03-10T02:34:11.667Z,11.14
2019-03-10T02:34:42.880Z,11.11
2019-03-10T02:35:14.096Z,11.09
2019-03-10T02:35:45.327Z,11.06
2019-03-10T02:36:16.555Z,11.04
2019-03-10T02:36:47.765Z,11.02
2019-03-10T02:37:18.963Z,10.98
2019-03-10T02:37:50.155Z,10.97
2019-03-10T02:38:21.355Z,10.96
2019-03-10T02:38:52.600Z,10.94
2019-03-10T02:39:23.817Z,10.95
2019-03-10T02:39:55.001Z,10.96
2019-03-10T02:40:26.204Z,10.95
2019-03-10T02:40:57.481Z,10.94
2019-03-10T02:41:28.662Z,10.94
2019-03-10T02:41:59.881Z,10.94
2019-03-10T02:42:31.064Z,10.94
2019-03-10T02:43:02.266Z,10.92
2019-03-10T02:43:33.473Z,10.89
2019-03-10T02:44:04.677Z,10.90
2019-03-10T02:44:35.883Z,10.90
2019-03-10T02:45:07.084Z,10.91
2019-03-10T02:45:38.306Z,10.91
2019-03-10T02:46:09.525Z,10.91
2019-03-10T02:46:40.729Z,10.88
2019-03-10T02:47:11.946Z,10.89
2019-03-10T02:47:43.178Z,10.90
2019-03-10T02:48:14.371Z,10.89
2019-03-10T02:48:45.570Z,10.89
2019-03-10T02:49:16.761Z,10.89
2019-03-10T02:49:47.960Z,10.89
2019-03-10T02:50:19.168Z,10.92
2019-03-10T02:50:50.387Z,10.92
2019-03-10T02:51:21.590Z,10.94
2019-03-10T02:51:52.841Z,10.94
2019-03-10T02:52:24.044Z,10.98
2019-03-10T02:52:55.239Z,11.03
2019-03-10T02:53:26.439Z,11.07
2019-03-10T02:53:57.642Z,11.09
2019-03-10T02:54:28.835Z,11.11
2019-03-10T02:55:00.059Z,11.12
2019-03-10T02:55:31.256Z,11.14
2019-03-10T02:56:02.456Z,11.17
2019-03-10T02:56:33.668Z,11.17
2019-03-10T02:57:04.902Z,11.17
2019-03-10T02:57:36.124Z,11.18
2019-03-10T02:58:07.305Z,11.18
2019-03-10T02:58:38.500Z,11.17
2019-03-10T02:59:09.702Z,11.16
2019-03-10T02:59:40.956Z,11.17
2019-03-10T03:00:12.157Z,11.18
2019-03-10T03:00:43.362Z,11.17
2019-03-10T03:01:14.616Z,11.18
2019-03-10T03:01:45.812Z,11.19
2019-03-10T03:02:17.022Z,11.19
2019-03-10T03:02:48.250Z,11.20
2019-03-10T03:03:19.450Z,11.21
2019-03-10T03:03:50.658Z,11.23
2019-03-10T03:04:21.929Z,11.22
2019-03-10T03:04:53.544Z,11.19
2019-03-10T03:05:24.785Z,11.21
2019-03-10T03:05:55.988Z,11.20
2019-03-10T03:06:27.219Z,11.20
2019-03-10T03:06:58.416Z,11.20
2019-03-10T03:07:29.623Z,11.21
2019-03-10T03:08:00.837Z,11.20
2019-03-10T03:08:32.257Z,11.19
2019-03-10T03:09:03.805Z,11.20
2019-03-10T03:09:35.011Z,11.18
2019-03-10T03:10:06.249Z,11.17
2019-03-10T03:10:37.523Z,11.16
2019-03-10T03:11:08.727Z,11.16
2019-03-10T03:11:39.962Z,11.16
2019-03-10T03:12:11.169Z,11.18
2019-03-10T03:12:42.445Z,11.17
2019-03-10T03:13:13.634Z,11.19
2019-03-10T03:13:44.839Z,11.18
2019-03-10T03:14:16.043Z,11.20
2019-03-10T03:14:47.229Z,11.18
2019-03-10T03:15:18.440Z,11.18
2019-03-10T03:15:49.640Z,11.16
2019-03-10T03:16:20.918Z,11.16
2019-03-10T03:16:52.957Z,11.17
2019-03-10T03:17:24.388Z,11.16
2019-03-10T03:17:55.602Z,11.17
2019-03-10T03:18:26.813Z,11.19
2019-03-10T03:18:58.033Z,11.22
2019-03-10T03:19:29.279Z,11.25
2019-03-10T03:20:00.573Z,11.25
2019-03-10T03:20:31.760Z,11.23
2019-03-10T03:21:02.956Z,11.25
2019-03-10T03:21:42.949Z,11.26
2019-03-10T03:22:07.092Z,11.27
2019-03-10T03:22:38.343Z,11.28
2019-03-10T03:23:09.550Z,11.30
2019-03-10T03:23:40.786Z,11.29
2019-03-10T03:24:12.088Z,11.32
2019-03-10T03:24:43.271Z,11.34
2019-03-10T03:25:14.470Z,11.35
2019-03-10T03:25:45.671Z,11.35
2019-03-10T03:26:16.863Z,11.36
2019-03-10T03:26:48.073Z,11.36
2019-03-10T03:27:19.329Z,11.36
2019-03-10T03:27:50.522Z,11.37
2019-03-10T03:28:21.731Z,11.36
2019-03-10T03:28:52.936Z,11.34
2019-03-10T03:29:24.174Z,11.32
2019-03-10T03:29:55.390Z,11.33
2019-03-10T03:30:26.598Z,11.35
2019-03-10T03:30:57.794Z,11.36
2019-03-10T03:31:29.002Z,11.36
2019-03-10T03:32:00.275Z,11.40
2019-03-10T03:32:31.503Z,11.42
2019-03-10T03:33:02.755Z,11.43
2019-03-10T03:33:34.066Z,11.45
2019-03-10T03:34:05.368Z,11.47
2019-03-10T03:34:36.569Z,11.46
2019-03-10T03:35:07.783Z,11.47
2019-03-10T03:35:39.018Z,11.46
2019-03-10T03:36:10.235Z,11.48
2019-03-10T03:36:41.417Z,11.43
2019-03-10T03:37:12.626Z,11.42
2019-03-10T03:37:43.824Z,11.39
2019-03-10T03:38:15.027Z,11.35
2019-03-10T03:38:46.242Z,11.37
2019-03-10T03:39:17.511Z,11.36
2019-03-10T03:39:48.692Z,11.35
2019-03-10T03:40:19.902Z,11.38
2019-03-10T03:40:51.123Z,11.35
2019-03-10T03:41:22.330Z,11.36
2019-03-10T03:41:53.535Z,11.38
2019-03-10T03:42:24.746Z,11.37
2019-03-10T03:42:55.951Z,11.36
2019-03-10T03:43:27.157Z,11.36
2019-03-10T03:43:58.381Z,11.37
2019-03-10T03:44:29.634Z,11.36
2019-03-10T03:45:00.845Z,11.35
2019-03-10T03:45:32.076Z,11.33
2019-03-10T03:46:03.262Z,11.32
2019-03-10T03:46:34.473Z,11.29
2019-03-10T03:47:05.685Z,11.29
2019-03-10T03:47:36.863Z,11.29
2019-03-10T03:48:08.071Z,11.28
2019-03-10T03:48:39.303Z,11.27
2019-03-10T03:49:10.536Z,11.29
2019-03-10T03:49:41.749Z,11.32
2019-03-10T03:50:12.959Z,11.36
2019-03-10T03:50:44.161Z,11.42
2019-03-10T03:51:15.380Z,11.45
2019-03-10T03:51:46.758Z,11.51
2019-03-10T03:52:17.997Z,11.51
2019-03-10T03:52:49.242Z,11.50
2019-03-10T03:53:20.451Z,11.50
2019-03-10T03:53:51.642Z,11.48
2019-03-10T03:54:22.845Z,11.48
2019-03-10T03:54:54.039Z,11.48
2019-03-10T03:55:25.232Z,11.47
2019-03-10T03:55:56.434Z,11.42
2019-03-10T03:56:27.644Z,11.40
2019-03-10T03:56:58.849Z,11.33
2019-03-10T03:57:30.039Z,11.31
2019-03-10T03:58:01.277Z,11.27
2019-03-10T03:58:32.459Z,11.23
2019-03-10T03:59:03.817Z,11.21
2019-03-10T03:59:35.013Z,11.21
2019-03-10T04:00:06.204Z,11.17
2019-03-10T04:00:37.389Z,11.14
2019-03-10T04:01:08.597Z,11.15
2019-03-10T04:01:39.819Z,11.14
2019-03-10T04:02:11.019Z,11.14
2019-03-10T04:02:42.260Z,11.15
2019-03-10T04:03:13.456Z,11.18
2019-03-10T04:03:44.685Z,11.17
2019-03-10T04:04:15.889Z,11.14
2019-03-10T04:04:47.106Z,11.13
2019-03-10T04:05:18.319Z,11.11
2019-03-10T04:05:49.536Z,11.11
2019-03-10T04:06:20.821Z,11.10
2019-03-10T04:06:52.005Z,11.10
2019-03-10T04:07:23.215Z,11.10
2019-03-10T04:07:54.451Z,11.06
2019-03-10T04:08:25.660Z,11.04
2019-03-10T04:08:56.892Z,11.02
2019-03-10T04:09:28.130Z,11.01
2019-03-10T04:09:59.337Z,11.01
2019-03-10T04:10:30.552Z,10.97
2019-03-10T04:11:01.772Z,10.94
2019-03-10T04:11:32.983Z,10.91
2019-03-10T04:12:04.171Z,10.88
2019-03-10T04:12:35.382Z,10.84
2019-03-10T04:13:06.590Z,10.81
2019-03-10T04:13:37.778Z,10.80
2019-03-10T04:14:08.979Z,10.77
2019-03-10T04:14:40.229Z,10.74
2019-03-10T04:15:11.420Z,10.74
2019-03-10T04:15:42.628Z,10.72
2019-03-10T04:16:13.844Z,10.71
2019-03-10T04:16:45.055Z,10.70
2019-03-10T04:17:16.260Z,10.71
2019-03-10T04:17:47.471Z,10.71
2019-03-10T04:18:18.670Z,10.71
2019-03-10T04:18:49.873Z,10.69
2019-03-10T04:19:21.069Z,10.66
2019-03-10T04:19:52.309Z,10.63
2019-03-10T04:20:23.505Z,10.59
2019-03-10T04:20:54.709Z,10.58
2019-03-10T04:21:25.905Z,10.60
2019-03-10T04:21:57.117Z,10.63
2019-03-10T04:22:28.337Z,10.63
2019-03-10T04:22:59.550Z,10.62
2019-03-10T04:23:30.802Z,10.60
2019-03-10T04:24:01.964Z,10.57
2019-03-10T04:24:33.164Z,10.53
2019-03-10T04:25:04.381Z,10.48
2019-03-10T04:25:35.622Z,10.44
2019-03-10T04:26:06.832Z,10.40
2019-03-10T04:26:38.205Z,10.38
2019-03-10T04:27:09.441Z,10.37
2019-03-10T04:27:40.633Z,10.38
2019-03-10T04:28:11.835Z,10.38
2019-03-10T04:28:43.054Z,10.36
2019-03-10T04:29:14.270Z,10.36
2019-03-10T04:29:45.467Z,10.35
2019-03-10T04:30:16.735Z,10.32
2019-03-10T04:30:47.946Z,10.31
2019-03-10T04:31:19.157Z,10.31
2019-03-10T04:31:50.390Z,10.35
2019-03-10T04:32:21.605Z,10.35
2019-03-10T04:32:52.817Z,10.34
2019-03-10T04:33:24.031Z,10.35
2019-03-10T04:33:55.274Z,10.35
2019-03-10T04:34:26.498Z,10.38
2019-03-10T04:34:57.723Z,10.39
2019-03-10T04:35:28.920Z,10.40
2019-03-10T04:36:00.135Z,10.40
2019-03-10T04:36:31.351Z,10.40
2019-03-10T04:37:02.598Z,10.40
2019-03-10T04:37:33.761Z,10.41
2019-03-10T04:38:04.959Z,10.40
2019-03-10T04:38:36.157Z,10.42
2019-03-10T04:39:07.382Z,10.44
2019-03-10T04:39:38.633Z,10.47
2019-03-10T04:40:09.816Z,10.46
2019-03-10T04:40:41.011Z,10.48
2019-03-10T04:41:12.213Z,10.51
2019-03-10T04:41:43.415Z,10.55
2019-03-10T04:42:14.677Z,10.57
2019-03-10T04:42:45.913Z,10.60
2019-03-10T04:43:17.108Z,10.65
2019-03-10T04:43:48.324Z,10.69
2019-03-10T04:44:19.543Z,10.72
2019-03-10T04:44:50.800Z,10.75
2019-03-10T04:45:21.995Z,10.75
2019-03-10T04:45:53.207Z,10.77
2019-03-10T04:46:24.423Z,10.79
2019-03-10T04:46:55.619Z,10.83
2019-03-10T04:47:26.896Z,10.84
2019-03-10T04:47:58.109Z,10.88
2019-03-10T04:48:29.312Z,10.90
2019-03-10T04:49:00.521Z,10.90
2019-03-10T04:49:31.722Z,10.94
2019-03-10T04:50:02.941Z,10.95
2019-03-10T04:50:34.143Z,10.97
2019-03-10T04:51:05.337Z,10.96
2019-03-10T04:51:36.543Z,10.97
2019-03-10T04:52:07.775Z,11.00
2019-03-10T04:52:38.989Z,11.02
2019-03-10T04:53:10.186Z,11.02
2019-03-10T04:53:41.387Z,11.04
2019-03-10T04:54:12.585Z,11.04
2019-03-10T04:54:43.785Z,11.09
2019-03-10T04:55:15.039Z,11.11
2019-03-10T04:55:46.240Z,11.13
2019-03-10T04:56:17.443Z,11.15
2019-03-10T04:56:48.653Z,11.14
2019-03-10T04:57:19.859Z,11.14
2019-03-10T04:57:51.055Z,11.15
2019-03-10T04:58:22.259Z,11.15
2019-03-10T04:58:53.456Z,11.14
2019-03-10T04:59:24.648Z,11.18
2019-03-10T04:59:55.903Z,11.22
2019-03-10T05:00:27.109Z,11.31
2019-03-10T05:00:58.324Z,11.41
2019-03-10T05:01:29.537Z,11.48
2019-03-10T05:02:00.748Z,11.51
2019-03-10T05:02:31.946Z,11.50
2019-03-10T05:03:03.144Z,11.52
2019-03-10T05:03:34.346Z,11.54
2019-03-10T05:04:05.595Z,11.58
2019-03-10T05:04:36.779Z,11.60
2019-03-10T05:05:08.006Z,11.65
2019-03-10T05:05:39.194Z,11.67
2019-03-10T05:06:10.410Z,11.70
2019-03-10T05:06:41.668Z,11.71
2019-03-10T05:07:12.912Z,11.73
2019-03-10T05:07:44.110Z,11.77
2019-03-10T05:08:15.297Z,11.78
2019-03-10T05:08:46.496Z,11.75
2019-03-10T05:09:17.695Z,11.71
2019-03-10T05:09:48.905Z,11.66
2019-03-10T05:10:20.106Z,11.64
2019-03-10T05:10:51.305Z,11.62
2019-03-10T05:11:22.551Z,11.58
2019-03-10T05:11:53.746Z,11.56
2019-03-10T05:12:24.951Z,11.51
2019-03-10T05:12:56.147Z,11.47
2019-03-10T05:13:27.428Z,11.48
2019-03-10T05:13:58.626Z,11.48
2019-03-10T05:14:29.833Z,11.46
2019-03-10T05:15:01.020Z,11.47
2019-03-10T05:15:32.274Z,11.46
2019-03-10T05:16:03.486Z,11.47
2019-03-10T05:16:34.689Z,11.44
2019-03-10T05:17:05.890Z,11.42
2019-03-10T05:17:37.100Z,11.40
2019-03-10T05:18:08.308Z,11.40
2019-03-10T05:18:39.523Z,11.41
2019-03-10T05:19:10.755Z,11.43
2019-03-10T05:19:41.957Z,11.43
2019-03-10T05:20:13.160Z,11.43
2019-03-10T05:20:44.457Z,11.43
2019-03-10T05:21:15.640Z,11.44
2019-03-10T05:21:46.838Z,11.41
2019-03-10T05:22:19.208Z,11.37
2019-03-10T05:22:50.416Z,11.38
2019-03-10T05:23:21.616Z,11.44
2019-03-10T05:23:52.854Z,11.45
2019-03-10T05:24:24.047Z,11.49
2019-03-10T05:24:55.286Z,11.52
2019-03-10T05:25:26.508Z,11.53
2019-03-10T05:25:57.702Z,11.54
2019-03-10T05:26:28.898Z,11.53
2019-03-10T05:27:00.102Z,11.53
2019-03-10T05:27:31.308Z,11.55
2019-03-10T05:28:02.503Z,11.57
2019-03-10T05:28:33.718Z,11.59
2019-03-10T05:29:04.919Z,11.63
2019-03-10T05:29:36.125Z,11.66
2019-03-10T05:30:07.385Z,11.69
2019-03-10T05:30:39.788Z,11.73
2019-03-10T05:31:10.991Z,11.76
2019-03-10T05:31:42.195Z,11.82
2019-03-10T05:32:13.399Z,11.89
2019-03-10T05:32:44.638Z,11.94
2019-03-10T05:33:15.840Z,12.01
2019-03-10T05:33:47.043Z,12.06
2019-03-10T05:34:18.289Z,12.11
2019-03-10T05:34:49.497Z,12.20
2019-03-10T05:35:20.784Z,12.28
2019-03-10T05:35:51.992Z,12.34
2019-03-10T05:36:23.187Z,12.41
2019-03-10T05:36:54.382Z,12.47
2019-03-10T05:37:25.592Z,12.51
2019-03-10T05:37:56.804Z,12.58
2019-03-10T05:38:27.997Z,12.64
2019-03-10T05:38:59.201Z,12.69
2019-03-10T05:39:30.395Z,12.74
2019-03-10T05:40:01.602Z,12.75
2019-03-10T05:40:32.864Z,12.79
2019-03-10T05:41:04.066Z,12.84
2019-03-10T05:41:35.265Z,12.90
2019-03-10T05:42:06.475Z,12.98
2019-03-10T05:42:37.688Z,13.06
2019-03-10T05:43:08.897Z,13.13
2019-03-10T05:43:40.110Z,13.20
2019-03-10T05:44:11.311Z,13.32
2019-03-10T05:44:42.511Z,13.39
2019-03-10T05:45:13.715Z,13.49
2019-03-10T05:45:44.969Z,13.54
2019-03-10T05:46:16.168Z,13.59
2019-03-10T05:46:47.380Z,13.64
2019-03-10T05:47:18.581Z,13.67
2019-03-10T05:47:49.804Z,13.71
2019-03-10T05:48:20.995Z,13.74
2019-03-10T05:48:52.202Z,13.75
2019-03-10T05:49:23.417Z,13.74
2019-03-10T05:49:54.616Z,13.77
2019-03-10T05:50:25.813Z,13.83
2019-03-10T05:50:57.068Z,13.86
2019-03-10T05:51:28.274Z,13.92
2019-03-10T05:51:59.456Z,13.96
2019-03-10T05:52:30.672Z,13.99
2019-03-10T05:53:01.849Z,14.02
2019-03-10T05:53:33.054Z,14.03
2019-03-10T05:54:04.293Z,14.03
2019-03-10T05:54:35.530Z,14.02
2019-03-10T05:55:06.729Z,14.09
2019-03-10T05:55:37.942Z,14.19
2019-03-10T05:56:09.129Z,14.29
2019-03-10T05:56:40.325Z,14.37
2019-03-10T05:57:11.528Z,14.41
2019-03-10T05:57:42.729Z,14.46
2019-03-10T05:58:13.926Z,14.48
2019-03-10T05:58:45.129Z,14.47
2019-03-10T05:59:16.344Z,14.46
2019-03-10T05:59:47.606Z,14.45
2019-03-10T06:00:18.803Z,14.44
2019-03-10T06:00:49.993Z,14.42
2019-03-10T06:01:21.211Z,14.45
2019-03-10T06:01:52.399Z,14.51
2019-03-10T06:02:23.604Z,14.54
2019-03-10T06:02:54.799Z,14.57
2019-03-10T06:03:26.021Z,14.57
2019-03-10T06:03:57.239Z,14.62
2019-03-10T06:04:28.483Z,14.70
2019-03-10T06:04:59.694Z,14.75
2019-03-10T06:05:30.923Z,14.75
2019-03-10T06:06:02.123Z,14.72
2019-03-10T06:06:33.324Z,14.74
2019-03-10T06:07:04.524Z,14.72
2019-03-10T06:07:35.718Z,14.70
2019-03-10T06:08:06.937Z,14.63
2019-03-10T06:08:38.169Z,14.59
2019-03-10T06:09:09.370Z,14.60
2019-03-10T06:09:40.570Z,14.60
2019-03-10T06:10:11.761Z,14.66
2019-03-10T06:10:43.001Z,14.68
2019-03-10T06:11:14.250Z,14.78
2019-03-10T06:11:45.464Z,14.89
2019-03-10T06:12:16.677Z,14.93
2019-03-10T06:12:47.912Z,14.94
2019-03-10T06:13:19.088Z,14.93
2019-03-10T06:13:50.285Z,14.88
2019-03-10T06:14:21.536Z,14.82
2019-03-10T06:14:52.734Z,14.77
2019-03-10T06:15:23.963Z,14.69
2019-03-10T06:15:55.157Z,14.63
2019-03-10T06:16:26.352Z,14.64
2019-03-10T06:16:57.553Z,14.57
2019-03-10T06:17:28.771Z,14.53
2019-03-10T06:18:00.013Z,14.45
2019-03-10T06:18:31.216Z,14.44
2019-03-10T06:19:02.416Z,14.39
2019-03-10T06:19:33.611Z,14.36
2019-03-10T06:20:04.828Z,14.28
2019-03-10T06:20:36.036Z,14.25
2019-03-10T06:21:07.233Z,14.24
2019-03-10T06:21:38.445Z,14.19
2019-03-10T06:22:09.705Z,14.14
2019-03-10T06:22:40.919Z,14.12
2019-03-10T06:23:12.118Z,14.07
2019-03-10T06:23:43.333Z,14.09
2019-03-10T06:24:14.523Z,14.12
2019-03-10T06:24:45.720Z,14.16
2019-03-10T06:25:16.919Z,14.25
2019-03-10T06:25:48.122Z,14.30
2019-03-10T06:26:19.325Z,14.26
2019-03-10T06:26:50.529Z,14.24
2019-03-10T06:27:21.779Z,14.27
2019-03-10T06:27:52.986Z,14.23
2019-03-10T06:28:24.190Z,14.20
2019-03-10T06:28:55.382Z,14.22
2019-03-10T06:29:26.573Z,14.20
2019-03-10T06:29:57.767Z,14.24
2019-03-10T06:30:28.983Z,14.27
2019-03-10T06:31:00.170Z,14.28
2019-03-10T06:31:31.379Z,14.31
2019-03-10T06:32:02.592Z,14.37
2019-03-10T06:32:33.794Z,14.43
2019-03-10T06:33:04.986Z,14.48
2019-03-10T06:33:36.227Z,14.54
2019-03-10T06:34:07.430Z,14.58
2019-03-10T06:34:38.630Z,14.69
2019-03-10T06:35:09.819Z,14.82
2019-03-10T06:35:41.023Z,14.94
2019-03-10T06:36:12.223Z,15.10
2019-03-10T06:36:43.450Z,15.22
2019-03-10T06:37:14.647Z,15.36
2019-03-10T06:37:45.842Z,15.38
2019-03-10T06:38:17.051Z,15.42
2019-03-10T06:38:48.316Z,15.54
2019-03-10T06:39:19.517Z,15.70
2019-03-10T06:39:50.721Z,15.81
2019-03-10T06:40:31.738Z,15.88
2019-03-10T06:40:54.883Z,15.92
2019-03-10T06:41:26.094Z,15.98
2019-03-10T06:41:57.316Z,15.99